Terminal Aerodrome Forecast
Issued by NWS

Home | Current Version | Previous Version | Text Only | Print | Product List | Glossary On
Versions: 1 2 3 4 5 6 7 8 9 10 11 12 13 14 15 16 17 18 19 20 21 22 23 24 25 26
000
FTUS42 KMLB 051739
TAFLEE
TAF
KLEE 051739Z 0518/0618 22011KT P6SM SCT025 BKN040
     FM060300 30005KT P6SM SCT025 SCT035 BKN060
     FM060900 36008KT P6SM SCT005 BKN010 OVC030=

USA.gov is the U.S. government's official web portal to all federal, state and local government web resources and services.